createdAt,value
2018-04-30T00:01:17.341Z,99315.17
2018-04-30T00:03:45.637Z,99317.45
2018-04-30T00:06:14.013Z,99305.83
2018-04-30T00:08:42.357Z,99294.55
2018-04-30T00:11:10.694Z,99275.09
2018-04-30T00:13:38.988Z,99275.14
2018-04-30T00:16:07.274Z,99275.79
2018-04-30T00:18:35.546Z,99274.52
2018-04-30T00:21:04.598Z,99254.09
2018-04-30T00:23:32.863Z,99256.56
2018-04-30T00:26:01.363Z,99265.36
2018-04-30T00:28:29.619Z,99274.15
2018-04-30T00:30:58.756Z,99298.68
2018-04-30T00:33:27.014Z,99291.85
2018-04-30T00:35:56.158Z,99277.69
2018-04-30T00:38:24.404Z,99247.84
2018-04-30T00:40:52.740Z,99224.88
2018-04-30T00:43:21.026Z,99213.77
2018-04-30T00:45:49.317Z,99215.86
2018-04-30T00:48:18.331Z,99215.82
2018-04-30T00:50:46.701Z,99218.74
2018-04-30T00:53:15.746Z,99244.16
2018-04-30T00:55:44.114Z,99263.57
2018-04-30T00:58:12.390Z,99298.34
2018-04-30T01:00:41.508Z,99341.49
2018-04-30T01:03:10.554Z,99329.17
2018-04-30T01:05:38.846Z,99306.08
2018-04-30T01:08:07.103Z,99303.20
2018-04-30T01:10:35.384Z,99284.56
2018-04-30T01:13:04.487Z,99277.15
2018-04-30T01:15:33.617Z,99246.61
2018-04-30T01:18:01.874Z,99267.16
2018-04-30T01:20:31.096Z,99259.73
2018-04-30T01:23:00.227Z,99239.13
2018-04-30T01:25:28.484Z,99252.55
2018-04-30T01:27:57.527Z,99246.70
2018-04-30T01:30:25.909Z,99237.13
2018-04-30T01:32:54.206Z,99232.94
2018-04-30T01:35:22.484Z,99239.43
2018-04-30T01:37:50.757Z,99232.52
2018-04-30T01:40:19.018Z,99225.98
2018-04-30T01:42:47.287Z,99225.88
2018-04-30T01:45:15.575Z,99235.09
2018-04-30T01:47:43.846Z,99242.81
2018-04-30T01:50:12.135Z,99247.58
2018-04-30T01:52:40.393Z,99251.18
2018-04-30T01:55:09.443Z,99252.80
2018-04-30T01:57:37.908Z,99250.12
2018-04-30T02:00:06.196Z,99244.75
2018-04-30T02:02:35.416Z,99247.64
2018-04-30T02:05:04.561Z,99246.05
2018-04-30T02:07:32.820Z,99249.16
2018-04-30T02:10:04.083Z,99248.06
2018-04-30T02:12:32.484Z,99240.14
2018-04-30T02:15:01.519Z,99244.23
2018-04-30T02:17:29.883Z,99240.53
2018-04-30T02:19:58.168Z,99228.92
2018-04-30T02:22:26.463Z,99244.75
2018-04-30T02:24:55.486Z,99250.78
2018-04-30T02:27:23.752Z,99251.52
2018-04-30T02:29:52.775Z,99249.22
2018-04-30T02:32:21.032Z,99242.76
2018-04-30T02:34:50.081Z,99246.14
2018-04-30T02:37:18.425Z,99241.34
2018-04-30T02:39:46.646Z,99249.29
2018-04-30T02:42:15.667Z,99241.89
2018-04-30T02:44:43.946Z,99227.03
2018-04-30T02:47:12.240Z,99218.27
2018-04-30T02:49:40.537Z,99214.17
2018-04-30T02:52:08.818Z,99223.85
2018-04-30T02:54:37.089Z,99215.86
2018-04-30T02:57:05.393Z,99218.86
2018-04-30T02:59:34.407Z,99214.56
2018-04-30T03:02:02.687Z,99215.63
2018-04-30T03:04:31.735Z,99213.83
2018-04-30T03:07:00.013Z,99216.66
2018-04-30T03:09:28.268Z,99226.44
2018-04-30T03:11:57.323Z,99234.53
2018-04-30T03:14:25.600Z,99247.55
2018-04-30T03:16:53.868Z,99244.98
2018-04-30T03:19:22.899Z,99257.38
2018-04-30T03:21:51.151Z,99250.39
2018-04-30T03:24:20.189Z,99261.30
2018-04-30T03:26:48.569Z,99261.40
2018-04-30T03:29:16.841Z,99258.54
2018-04-30T03:31:45.866Z,99268.52
2018-04-30T03:34:14.139Z,99272.02
2018-04-30T03:36:43.239Z,99280.06
2018-04-30T03:39:11.470Z,99283.63
2018-04-30T03:41:39.800Z,99274.57
2018-04-30T03:44:08.058Z,99279.34
2018-04-30T03:46:36.426Z,99282.97
2018-04-30T03:49:05.467Z,99284.13
2018-04-30T03:51:33.724Z,99277.92
2018-04-30T03:54:02.068Z,99287.67
2018-04-30T03:56:30.260Z,99281.14
2018-04-30T03:58:58.545Z,99284.28
2018-04-30T04:01:44.472Z,99291.27
2018-04-30T04:04:30.445Z,99294.66
2018-04-30T04:06:58.716Z,99306.37
2018-04-30T04:09:26.971Z,99296.34
2018-04-30T04:11:55.992Z,99299.42
2018-04-30T04:14:24.347Z,99294.34
2018-04-30T04:16:52.609Z,99292.54
2018-04-30T04:19:20.872Z,99293.56
2018-04-30T04:21:49.135Z,99292.54
2018-04-30T04:24:18.179Z,99306.33
2018-04-30T04:26:46.560Z,99312.44
2018-04-30T04:29:14.916Z,99314.09
2018-04-30T04:31:43.958Z,99310.14
2018-04-30T04:34:12.975Z,99321.44
2018-04-30T04:36:41.267Z,99328.42
2018-04-30T04:39:09.553Z,99320.83
2018-04-30T04:41:37.903Z,99333.89
2018-04-30T04:44:06.359Z,99333.42
2018-04-30T04:46:34.735Z,99329.83
2018-04-30T04:49:03.222Z,99331.79
2018-04-30T04:51:31.490Z,99338.48
2018-04-30T04:54:00.529Z,99347.20
2018-04-30T04:56:28.783Z,99344.98
2018-04-30T04:58:57.828Z,99353.27
2018-04-30T05:01:26.119Z,99353.59
2018-04-30T05:03:54.397Z,99355.14
2018-04-30T05:06:23.411Z,99356.06
2018-04-30T05:08:51.735Z,99355.68
2018-04-30T05:11:20.047Z,99364.92
2018-04-30T05:13:48.315Z,99372.94
2018-04-30T05:16:16.638Z,99375.65
2018-04-30T05:18:44.959Z,99371.22
2018-04-30T05:21:13.264Z,99366.80
2018-04-30T05:23:41.543Z,99368.19
2018-04-30T05:26:10.631Z,99367.13
2018-04-30T05:28:39.719Z,99366.47
2018-04-30T05:31:08.155Z,99357.67
2018-04-30T05:33:36.421Z,99355.88
2018-04-30T05:36:05.499Z,99370.81
2018-04-30T05:38:33.758Z,99376.59
2018-04-30T05:41:02.018Z,99380.09
2018-04-30T05:43:31.076Z,99380.09
2018-04-30T05:45:59.325Z,99397.17
2018-04-30T05:48:27.589Z,99396.64
2018-04-30T05:50:56.015Z,99401.83
2018-04-30T05:53:24.302Z,99398.93
2018-04-30T05:55:52.555Z,99411.00
2018-04-30T05:58:21.602Z,99406.38
2018-04-30T06:00:49.893Z,99413.19
2018-04-30T06:03:18.136Z,99410.83
2018-04-30T06:05:47.169Z,99410.86
2018-04-30T06:08:16.204Z,99402.95
2018-04-30T06:10:44.471Z,99399.54
2018-04-30T06:13:13.507Z,99396.79
2018-04-30T06:15:41.763Z,99414.51
2018-04-30T06:18:10.893Z,99433.63
2018-04-30T06:20:39.296Z,99445.48
2018-04-30T06:23:07.587Z,99447.89
2018-04-30T06:25:35.865Z,99454.55
2018-04-30T06:28:04.153Z,99454.30
2018-04-30T06:30:33.265Z,99471.66
2018-04-30T06:33:01.520Z,99453.02
2018-04-30T06:35:29.789Z,99464.61
2018-04-30T06:37:58.153Z,99463.89
2018-04-30T06:40:26.411Z,99466.10
2018-04-30T06:42:55.451Z,99467.75
2018-04-30T06:45:23.706Z,99472.42
2018-04-30T06:47:52.728Z,99471.83
2018-04-30T06:50:20.983Z,99470.14
2018-04-30T06:52:49.254Z,99466.80
2018-04-30T06:55:17.914Z,99469.05
2018-04-30T06:57:46.191Z,99466.17
2018-04-30T07:00:15.325Z,99467.22
2018-04-30T07:02:44.339Z,99474.07
2018-04-30T07:05:12.716Z,99476.33
2018-04-30T07:07:40.983Z,99468.36
2018-04-30T07:10:10.005Z,99478.55
2018-04-30T07:12:38.319Z,99487.45
2018-04-30T07:15:06.812Z,99501.21
2018-04-30T07:17:35.186Z,99495.08
2018-04-30T07:20:03.488Z,99493.62
2018-04-30T07:22:32.501Z,99494.75
2018-04-30T07:25:00.737Z,99494.08
2018-04-30T07:27:29.114Z,99492.41
2018-04-30T07:29:57.314Z,99496.36
2018-04-30T07:32:25.605Z,99494.30
2018-04-30T07:34:53.924Z,99502.03
2018-04-30T07:37:22.941Z,99499.59
2018-04-30T07:39:51.251Z,99500.47
2018-04-30T07:42:19.529Z,99498.05
2018-04-30T07:44:47.775Z,99497.75
2018-04-30T07:47:16.046Z,99504.21
2018-04-30T07:49:44.327Z,99516.64
2018-04-30T07:52:12.580Z,99527.31
2018-04-30T07:54:40.869Z,99526.79
2018-04-30T07:57:10.006Z,99522.38
2018-04-30T07:59:38.275Z,99511.66
2018-04-30T08:02:06.569Z,99520.79
2018-04-30T08:04:34.958Z,99515.11
2018-04-30T08:07:03.246Z,99516.58
2018-04-30T08:09:31.492Z,99524.77
2018-04-30T08:11:59.764Z,99518.80
2018-04-30T08:14:28.117Z,99527.97
2018-04-30T08:16:57.230Z,99518.44
2018-04-30T08:19:25.573Z,99522.91
2018-04-30T08:21:54.092Z,99535.67
2018-04-30T08:24:23.122Z,99520.59
2018-04-30T08:26:52.207Z,99516.65
2018-04-30T08:29:20.453Z,99525.98
2018-04-30T08:31:48.699Z,99532.47
2018-04-30T08:34:16.963Z,99535.34
2018-04-30T08:36:46.090Z,99542.35
2018-04-30T08:39:14.271Z,99550.61
2018-04-30T08:41:43.399Z,99549.30
2018-04-30T08:44:12.542Z,99556.84
2018-04-30T08:46:40.836Z,99555.70
2018-04-30T08:49:09.092Z,99561.34
2018-04-30T08:51:37.358Z,99550.45
2018-04-30T08:54:05.676Z,99560.56
2018-04-30T08:56:34.686Z,99560.92
2018-04-30T08:59:02.940Z,99571.82
2018-04-30T09:01:31.260Z,99570.55
2018-04-30T09:03:59.524Z,99564.41
2018-04-30T09:06:27.849Z,99573.55
2018-04-30T09:08:56.853Z,99575.64
2018-04-30T09:11:25.230Z,99575.44
2018-04-30T09:13:54.278Z,99573.70
2018-04-30T09:16:22.522Z,99568.97
2018-04-30T09:18:51.661Z,99565.64
2018-04-30T09:21:19.919Z,99566.45
2018-04-30T09:23:49.040Z,99570.30
2018-04-30T09:26:17.219Z,99575.60
2018-04-30T09:28:46.229Z,99559.86
2018-04-30T09:31:15.253Z,99568.97
2018-04-30T09:33:43.541Z,99560.92
2018-04-30T09:36:11.948Z,99570.39
2018-04-30T09:38:40.231Z,99578.66
2018-04-30T09:41:08.507Z,99565.10
2018-04-30T09:43:37.540Z,99564.05
2018-04-30T09:46:05.787Z,99560.99
2018-04-30T09:48:34.810Z,99561.74
2018-04-30T09:51:03.833Z,99565.36
2018-04-30T09:53:32.092Z,99561.45
2018-04-30T09:56:01.146Z,99557.71
2018-04-30T09:58:29.391Z,99558.52
2018-04-30T10:00:58.429Z,99556.08
2018-04-30T10:03:26.817Z,99559.95
2018-04-30T10:05:55.927Z,99552.83
2018-04-30T10:08:24.194Z,99566.50
2018-04-30T10:10:52.498Z,99588.95
2018-04-30T10:13:20.796Z,99561.30
2018-04-30T10:15:49.829Z,99568.54
2018-04-30T10:18:18.129Z,99558.73
2018-04-30T10:20:46.384Z,99563.86
2018-04-30T10:23:14.677Z,99556.15
2018-04-30T10:25:43.713Z,99565.84
2018-04-30T10:28:12.068Z,99563.80
2018-04-30T10:30:41.086Z,99567.22
2018-04-30T10:33:10.149Z,99557.05
2018-04-30T10:35:39.205Z,99543.20
2018-04-30T10:38:07.546Z,99551.27
2018-04-30T10:40:36.605Z,99554.20
2018-04-30T10:43:04.889Z,99545.61
2018-04-30T10:45:35.021Z,99556.00
2018-04-30T10:48:03.314Z,99552.63
2018-04-30T10:50:32.386Z,99555.70
2018-04-30T10:53:00.716Z,99558.52
2018-04-30T10:55:28.980Z,99547.62
2018-04-30T10:57:57.996Z,99543.89
2018-04-30T11:00:27.020Z,99550.03
2018-04-30T11:02:55.307Z,99548.20
2018-04-30T11:05:23.553Z,99547.75
2018-04-30T11:07:51.888Z,99556.25
2018-04-30T11:10:20.935Z,99536.95
2018-04-30T11:12:49.292Z,99550.00
2018-04-30T11:15:18.305Z,99541.94
2018-04-30T11:17:46.574Z,99537.82
2018-04-30T11:20:15.813Z,99547.49
2018-04-30T11:22:44.241Z,99540.20
2018-04-30T11:25:13.214Z,99531.70
2018-04-30T11:27:41.481Z,99535.06
2018-04-30T11:30:10.568Z,99538.98
2018-04-30T11:32:39.709Z,99538.95
2018-04-30T11:35:08.000Z,99537.14
2018-04-30T11:37:36.265Z,99531.91
2018-04-30T11:40:05.315Z,99533.38
2018-04-30T11:42:33.579Z,99536.43
2018-04-30T11:45:01.949Z,99544.71
2018-04-30T11:47:30.980Z,99538.27
2018-04-30T11:49:59.276Z,99543.02
2018-04-30T11:52:27.518Z,99555.27
2018-04-30T11:54:55.856Z,99543.73
2018-04-30T11:57:24.112Z,99535.38
2018-04-30T11:59:52.419Z,99539.02
2018-04-30T12:02:21.460Z,99524.78
2018-04-30T12:04:49.800Z,99542.16
2018-04-30T12:07:17.976Z,99555.67
2018-04-30T12:09:46.263Z,99558.06
2018-04-30T12:12:14.528Z,99570.00
2018-04-30T12:14:43.162Z,99577.20
2018-04-30T12:17:11.450Z,99586.19
2018-04-30T12:19:40.604Z,99604.53
2018-04-30T12:22:09.139Z,99610.31
2018-04-30T12:24:37.372Z,99600.54
2018-04-30T12:27:05.662Z,99597.13
2018-04-30T12:29:34.784Z,99613.67
2018-04-30T12:32:03.175Z,99602.34
2018-04-30T12:34:31.424Z,99614.60
2018-04-30T12:36:59.679Z,99608.62
2018-04-30T12:39:28.045Z,99618.86
2018-04-30T12:41:57.093Z,99624.24
2018-04-30T12:44:25.464Z,99611.11
2018-04-30T12:46:53.940Z,99609.02
2018-04-30T12:49:22.230Z,99613.55
2018-04-30T12:51:50.464Z,99626.53
2018-04-30T12:54:18.783Z,99635.99
2018-04-30T12:56:47.126Z,99631.69
2018-04-30T12:59:17.937Z,99627.33
2018-04-30T13:01:47.062Z,99618.81
2018-04-30T13:04:15.411Z,99628.66
2018-04-30T13:06:43.688Z,99629.30
2018-04-30T13:09:12.132Z,99626.98
2018-04-30T13:11:40.431Z,99628.73
2018-04-30T13:14:08.908Z,99631.75
2018-04-30T13:16:38.385Z,99611.05
2018-04-30T13:19:07.577Z,99620.16
2018-04-30T13:21:36.253Z,99626.77
2018-04-30T13:24:04.529Z,99648.88
2018-04-30T13:26:33.544Z,99629.17
2018-04-30T13:29:01.847Z,99629.05
2018-04-30T13:31:30.111Z,99658.09
2018-04-30T13:33:58.352Z,99638.24
2018-04-30T13:36:26.627Z,99703.48
2018-04-30T13:38:54.913Z,99693.67
2018-04-30T13:41:23.160Z,99681.39
2018-04-30T13:43:52.196Z,99652.52
2018-04-30T13:46:21.305Z,99669.12
2018-04-30T13:48:49.540Z,99662.12
2018-04-30T13:51:17.854Z,99667.41
2018-04-30T13:53:46.146Z,99674.36
2018-04-30T13:56:14.468Z,99670.89
2018-04-30T13:58:42.729Z,99678.53
2018-04-30T14:01:11.970Z,99657.51
2018-04-30T14:03:40.356Z,99666.55
2018-04-30T14:06:08.656Z,99668.88
2018-04-30T14:08:36.929Z,99669.36
2018-04-30T14:11:05.978Z,99679.97
2018-04-30T14:13:34.375Z,99675.16
2018-04-30T14:16:02.738Z,99677.70
2018-04-30T14:18:30.987Z,99666.45
2018-04-30T14:20:59.316Z,99684.51
2018-04-30T14:23:27.575Z,99686.36
2018-04-30T14:25:55.846Z,99701.52
2018-04-30T14:28:24.191Z,99687.72
2018-04-30T14:30:52.514Z,99681.22
2018-04-30T14:33:20.856Z,99693.73
2018-04-30T14:35:49.889Z,99678.48
2018-04-30T14:38:18.202Z,99703.96
2018-04-30T14:40:47.276Z,99694.71
2018-04-30T14:43:16.338Z,99684.03
2018-04-30T14:45:44.607Z,99691.16
2018-04-30T14:48:12.918Z,99682.71
2018-04-30T14:50:41.994Z,99684.34
2018-04-30T14:53:10.287Z,99693.95
2018-04-30T14:55:38.786Z,99690.73
2018-04-30T14:58:08.107Z,99695.50
2018-04-30T15:00:36.458Z,99693.97
2018-04-30T15:03:04.756Z,99687.05
2018-04-30T15:05:33.004Z,99686.88
2018-04-30T15:08:01.312Z,99660.61
2018-04-30T15:10:30.346Z,99687.41
2018-04-30T15:12:58.758Z,99681.57
2018-04-30T15:15:27.025Z,99669.44
2018-04-30T15:17:55.330Z,99677.42
2018-04-30T15:20:23.710Z,99675.80
2018-04-30T15:22:52.025Z,99674.95
2018-04-30T15:25:20.319Z,99681.11
2018-04-30T15:27:48.601Z,99660.77
2018-04-30T15:30:16.885Z,99663.53
2018-04-30T15:32:45.214Z,99669.76
2018-04-30T15:35:13.501Z,99653.70
2018-04-30T15:37:41.810Z,99670.78
2018-04-30T15:40:10.196Z,99654.89
2018-04-30T15:42:38.468Z,99661.36
2018-04-30T15:45:06.828Z,99685.46
2018-04-30T15:47:35.240Z,99660.62
2018-04-30T15:50:03.514Z,99659.22
2018-04-30T15:52:31.787Z,99650.50
2018-04-30T15:55:00.102Z,99657.22
2018-04-30T15:57:28.456Z,99660.90
2018-04-30T15:59:57.487Z,99685.97
2018-04-30T16:02:25.760Z,99658.41
2018-04-30T16:04:54.262Z,99668.23
2018-04-30T16:07:22.557Z,99656.27
2018-04-30T16:09:51.459Z,99662.81
2018-04-30T16:12:19.720Z,99638.19
2018-04-30T16:14:48.759Z,99664.20
2018-04-30T16:17:17.055Z,99637.68
2018-04-30T16:19:45.313Z,99646.63
2018-04-30T16:22:14.448Z,99658.77
2018-04-30T16:24:43.674Z,99645.77
2018-04-30T16:27:12.007Z,99654.58
2018-04-30T16:29:40.355Z,99648.77
2018-04-30T16:32:08.636Z,99650.63
2018-04-30T16:34:36.994Z,99664.86
2018-04-30T16:37:05.976Z,99708.88
2018-04-30T16:39:35.759Z,99654.02
2018-04-30T16:42:04.421Z,99637.59
2018-04-30T16:44:33.565Z,99650.23
2018-04-30T16:47:01.815Z,99633.99
2018-04-30T16:49:31.481Z,99644.89
2018-04-30T16:51:59.739Z,99630.49
2018-04-30T16:54:28.815Z,99651.64
2018-04-30T16:56:57.164Z,99644.23
2018-04-30T16:59:25.457Z,99647.44
2018-04-30T17:01:54.466Z,99648.06
2018-04-30T17:04:22.773Z,99650.65
2018-04-30T17:06:51.090Z,99648.23
2018-04-30T17:09:19.341Z,99645.82
2018-04-30T17:11:47.619Z,99634.66
2018-04-30T17:14:15.978Z,99645.49
2018-04-30T17:16:45.067Z,99659.20
2018-04-30T17:19:13.417Z,99651.46
2018-04-30T17:21:42.461Z,99643.40
2018-04-30T17:24:10.744Z,99656.11
2018-04-30T17:26:39.010Z,99653.86
2018-04-30T17:29:07.269Z,99638.27
2018-04-30T17:31:35.567Z,99641.19
2018-04-30T17:34:04.755Z,99634.23
2018-04-30T17:36:33.096Z,99646.97
2018-04-30T17:39:01.269Z,99641.01
2018-04-30T17:41:30.283Z,99643.67
2018-04-30T17:43:58.576Z,99638.04
2018-04-30T17:46:26.890Z,99609.45
2018-04-30T17:48:55.193Z,99621.03
2018-04-30T17:51:23.460Z,99620.86
2018-04-30T17:53:51.711Z,99624.78
2018-04-30T17:56:20.863Z,99626.59
2018-04-30T17:58:49.164Z,99642.51
2018-04-30T18:01:17.419Z,99617.62
2018-04-30T18:03:46.428Z,99651.25
2018-04-30T18:06:14.696Z,99636.91
2018-04-30T18:08:43.729Z,99637.97
2018-04-30T18:11:11.999Z,99637.23
2018-04-30T18:13:40.336Z,99638.45
2018-04-30T18:16:08.629Z,99623.27
2018-04-30T18:18:37.703Z,99641.82
2018-04-30T18:21:06.453Z,99631.08
2018-04-30T18:23:34.830Z,99632.97
2018-04-30T18:26:03.087Z,99631.88
2018-04-30T18:28:31.382Z,99631.00
2018-04-30T18:30:59.671Z,99621.50
2018-04-30T18:33:28.187Z,99629.51
2018-04-30T18:35:57.450Z,99650.84
2018-04-30T18:38:30.517Z,99643.47
2018-04-30T18:40:59.079Z,99659.34
2018-04-30T18:43:27.365Z,99649.84
2018-04-30T18:45:55.655Z,99669.17
2018-04-30T18:48:24.689Z,99674.90
2018-04-30T18:50:52.963Z,99669.24
2018-04-30T18:53:21.229Z,99655.55
2018-04-30T18:55:50.277Z,99655.15
2018-04-30T18:58:18.625Z,99666.33
2018-04-30T19:00:47.661Z,99609.75
2018-04-30T19:03:16.019Z,99682.97
2018-04-30T19:05:44.280Z,99689.23
2018-04-30T19:08:12.609Z,99685.70
2018-04-30T19:10:41.643Z,99677.98
2018-04-30T19:13:10.038Z,99697.27
2018-04-30T19:15:38.317Z,99698.03
2018-04-30T19:18:06.580Z,99694.86
2018-04-30T19:20:35.617Z,99710.86
2018-04-30T19:23:03.902Z,99706.90
2018-04-30T19:25:33.004Z,99701.38
2018-04-30T19:28:02.028Z,99720.23
2018-04-30T19:30:30.287Z,99698.56
2018-04-30T19:32:59.428Z,99691.41
2018-04-30T19:35:28.434Z,99703.20
2018-04-30T19:37:57.464Z,99699.50
2018-04-30T19:40:25.925Z,99708.10
2018-04-30T19:42:54.949Z,99712.87
2018-04-30T19:45:23.232Z,99724.81
2018-04-30T19:47:52.253Z,99711.85
2018-04-30T19:50:22.584Z,99715.77
2018-04-30T19:52:50.913Z,99721.83
2018-04-30T19:55:19.137Z,99714.34
2018-04-30T19:57:47.381Z,99716.50
2018-04-30T20:00:15.656Z,99712.30
2018-04-30T20:02:44.036Z,99711.11
2018-04-30T20:05:12.334Z,99708.05
2018-04-30T20:07:40.623Z,99713.27
2018-04-30T20:10:08.915Z,99731.02
2018-04-30T20:12:37.163Z,99729.88
2018-04-30T20:15:06.223Z,99728.25
2018-04-30T20:17:34.590Z,99724.20
2018-04-30T20:20:02.834Z,99723.67
2018-04-30T20:22:31.877Z,99742.91
2018-04-30T20:25:01.004Z,99745.03
2018-04-30T20:27:29.271Z,99745.16
2018-04-30T20:29:58.508Z,99741.62
2018-04-30T20:32:26.771Z,99739.34
2018-04-30T20:34:55.780Z,99740.78
2018-04-30T20:37:24.804Z,99741.81
2018-04-30T20:39:54.187Z,99740.36
2018-04-30T20:42:22.426Z,99764.11
2018-04-30T20:44:50.705Z,99768.44
2018-04-30T20:47:18.963Z,99758.78
2018-04-30T20:49:47.219Z,99760.75
2018-04-30T20:52:15.597Z,99769.91
2018-04-30T20:54:44.049Z,99766.02
2018-04-30T20:57:12.341Z,99758.77
2018-04-30T20:59:40.599Z,99770.00
2018-04-30T21:02:08.949Z,99773.09
2018-04-30T21:04:37.186Z,99773.22
2018-04-30T21:07:05.525Z,99766.19
2018-04-30T21:09:34.545Z,99798.20
2018-04-30T21:12:02.817Z,99783.56
2018-04-30T21:14:31.094Z,99790.23
2018-04-30T21:17:00.107Z,99796.34
2018-04-30T21:19:29.438Z,99787.87
2018-04-30T21:21:57.718Z,99794.89
2018-04-30T21:24:27.021Z,99788.64
2018-04-30T21:29:52.401Z,99804.38
2018-04-30T21:32:21.613Z,99807.33
2018-04-30T21:34:49.904Z,99799.63
2018-04-30T21:37:18.179Z,99816.61
2018-04-30T21:39:47.189Z,99807.70
2018-04-30T21:42:16.291Z,99814.18
2018-04-30T21:44:45.306Z,99809.31
2018-04-30T21:47:13.588Z,99824.71
2018-04-30T21:49:41.845Z,99818.23
2018-04-30T21:52:10.098Z,99826.88
2018-04-30T21:54:38.485Z,99836.38
2018-04-30T21:57:06.718Z,99831.69
2018-04-30T21:59:34.998Z,99839.49
2018-04-30T22:02:03.244Z,99834.39
2018-04-30T22:04:31.545Z,99848.41
2018-04-30T22:06:59.809Z,99835.28
2018-04-30T22:09:28.821Z,99856.35
2018-04-30T22:11:57.843Z,99847.84
2018-04-30T22:14:26.122Z,99854.06
2018-04-30T22:16:55.139Z,99852.98
2018-04-30T22:19:23.396Z,99837.75
2018-04-30T22:21:51.639Z,99873.16
2018-04-30T22:24:19.914Z,99861.63
2018-04-30T22:26:48.143Z,99869.70
2018-04-30T22:29:16.408Z,99873.06
2018-04-30T22:31:44.648Z,99884.12
2018-04-30T22:34:12.920Z,99876.41
2018-04-30T22:36:41.279Z,99889.55
2018-04-30T22:39:09.457Z,99894.34
2018-04-30T22:41:37.800Z,99893.80
2018-04-30T22:44:06.100Z,99895.59
2018-04-30T22:46:35.109Z,99897.73
2018-04-30T22:49:04.119Z,99918.06
2018-04-30T22:51:33.166Z,99907.36
2018-04-30T22:54:01.437Z,99909.71
2018-04-30T22:56:30.433Z,99912.59
2018-04-30T22:58:59.462Z,99916.61
2018-04-30T23:01:27.696Z,99919.45
2018-04-30T23:03:55.943Z,99936.33
2018-04-30T23:06:24.203Z,99914.33
2018-04-30T23:08:53.211Z,99940.33
2018-04-30T23:11:22.218Z,99916.66
2018-04-30T23:13:51.265Z,99934.84
2018-04-30T23:16:19.522Z,99932.81
2018-04-30T23:21:15.317Z,99963.28
2018-04-30T23:23:43.572Z,99943.22
2018-04-30T23:26:12.592Z,99954.05
2018-04-30T23:28:40.891Z,99957.20
2018-04-30T23:31:09.150Z,99973.38
2018-04-30T23:33:37.375Z,99954.52
2018-04-30T23:36:05.771Z,99968.06
2018-04-30T23:38:34.000Z,99974.97
2018-04-30T23:41:02.251Z,99988.85
2018-04-30T23:43:30.541Z,99982.89
2018-04-30T23:45:58.804Z,99985.16
2018-04-30T23:48:27.830Z,99991.33
2018-04-30T23:50:56.136Z,99998.16
2018-04-30T23:53:24.395Z,99992.56
2018-04-30T23:55:53.401Z,99970.61
2018-04-30T23:58:22.432Z,99993.42
